Time;durP1;ratioP1;P1;durP2;ratioP2;P2;SDS_P1;SDS_P2;PMS_P1;PMS_P2;Temp;Humidity;BMP_temperature;BMP_pressure;BME280_temperature;BME280_humidity;BME280_pressure;Samples;Min_cycle;Max_cycle;Signal;HPM_P1;HPM_P2
2022/06/15 00:01:21;;;;;;;9.48;4.53;;;9.40;99.90;;;;;;5015676;28;20124;-42
2022/06/15 00:03:48;;;;;;;5.90;3.72;;;9.10;99.90;;;;;;5015366;28;20034;-42
2022/06/15 00:06:18;;;;;;;8.93;4.55;;;8.90;99.90;;;;;;4997807;28;20041;-44
2022/06/15 00:08:46;;;;;;;9.15;4.75;;;9.00;99.90;;;;;;5015452;28;20117;-43
2022/06/15 00:11:15;;;;;;;7.90;4.22;;;8.90;99.90;;;;;;5015323;28;20046;-43
2022/06/15 00:13:42;;;;;;;9.02;4.97;;;9.00;99.90;;;;;;5015116;28;20144;-42
2022/06/15 00:16:08;;;;;;;8.55;4.88;;;9.50;99.90;;;;;;5015450;28;20038;-42
2022/06/15 00:18:35;;;;;;;9.30;3.92;;;8.90;99.90;;;;;;5014389;28;20557;-42
2022/06/15 00:21:02;;;;;;;6.35;4.03;;;8.90;99.90;;;;;;5015325;28;20042;-42
2022/06/15 00:23:29;;;;;;;8.45;4.45;;;9.70;99.90;;;;;;5015347;28;20042;-41
2022/06/15 00:25:55;;;;;;;12.30;4.97;;;8.80;99.90;;;;;;5014960;28;20045;-42
2022/06/15 00:28:21;;;;;;;6.68;3.78;;;8.60;99.90;;;;;;5015287;28;20045;-42
2022/06/15 00:30:51;;;;;;;5.97;4.22;;;8.40;99.90;;;;;;5014966;28;20432;-44
2022/06/15 00:33:22;;;;;;;8.73;4.45;;;9.10;99.90;;;;;;5015232;28;20042;-42
2022/06/15 00:35:59;;;;;;;9.35;6.03;;;8.70;99.90;;;;;;5013661;28;20041;-42
2022/06/15 00:38:28;;;;;;;12.95;6.80;;;9.70;99.90;;;;;;5015030;28;20389;-42
2022/06/15 00:40:54;;;;;;;12.07;5.85;;;8.80;99.90;;;;;;5014910;28;20033;-42
2022/06/15 00:43:47;;;;;;;12.45;6.07;;;8.80;99.90;;;;;;5014774;28;20049;-41
2022/06/15 00:46:25;;;;;;;11.95;6.55;;;8.80;99.90;;;;;;5014622;28;20495;-42
2022/06/15 00:48:58;;;;;;;9.90;5.78;;;8.80;99.90;;;;;;5014847;28;20040;-42
2022/06/15 00:51:24;;;;;;;9.45;6.03;;;8.90;99.90;;;;;;5014850;28;20046;-41
2022/06/15 00:53:51;;;;;;;16.13;6.47;;;8.90;99.90;;;;;;5014600;28;20060;-42
2022/06/15 00:56:17;;;;;;;11.45;6.75;;;8.90;99.90;;;;;;5014747;28;20061;-41
2022/06/15 00:58:47;;;;;;;9.80;6.05;;;9.50;99.90;;;;;;5014627;28;20041;-42
2022/06/15 01:01:13;;;;;;;8.40;5.82;;;9.10;99.90;;;;;;5015043;28;20042;-41
2022/06/15 01:03:38;;;;;;;11.57;6.43;;;8.90;99.90;;;;;;5014609;28;20049;-42
2022/06/15 01:06:14;;;;;;;13.40;7.00;;;8.80;99.90;;;;;;5029773;28;20481;-42
2022/06/15 01:08:56;;;;;;;12.35;6.47;;;9.80;99.90;;;;;;5014345;28;20045;-43
2022/06/15 01:11:43;;;;;;;12.95;7.10;;;8.80;99.90;;;;;;5014304;28;20120;-41
2022/06/15 01:14:45;;;;;;;10.25;6.97;;;8.80;99.90;;;;;;5014404;28;20048;-41
2022/06/15 01:17:29;;;;;;;13.20;7.60;;;8.80;99.90;;;;;;5014364;28;20095;-42
2022/06/15 01:20:39;;;;;;;12.35;7.80;;;9.10;99.90;;;;;;5014011;28;20462;-42
2022/06/15 01:23:11;;;;;;;16.27;7.82;;;8.80;99.90;;;;;;5013506;28;20085;-43
2022/06/15 01:26:02;;;;;;;13.60;8.00;;;8.80;99.90;;;;;;5014117;28;20392;-42
2022/06/15 01:28:39;;;;;;;12.43;7.65;;;9.10;99.90;;;;;;5014166;28;20049;-42
2022/06/15 01:31:34;;;;;;;16.85;8.32;;;8.80;99.90;;;;;;5013303;28;20143;-42
2022/06/15 01:34:10;;;;;;;14.82;8.18;;;8.90;99.90;;;;;;5013989;28;20049;-42
2022/06/15 01:36:42;;;;;;;17.15;9.75;;;8.90;99.90;;;;;;5014189;28;20044;-42
2022/06/15 01:39:20;;;;;;;20.15;9.55;;;9.90;99.90;;;;;;5013886;28;20054;-43
2022/06/15 01:42:06;;;;;;;14.32;9.10;;;8.90;99.90;;;;;;5013982;28;20168;-42
2022/06/15 01:44:37;;;;;;;19.98;9.02;;;8.90;99.90;;;;;;5010766;28;20052;-47
2022/06/15 01:47:06;;;;;;;14.05;8.75;;;9.00;99.90;;;;;;5009153;28;20479;-43
2022/06/15 01:49:51;;;;;;;13.93;8.48;;;9.00;99.90;;;;;;5011081;28;20057;-43
2022/06/15 01:52:22;;;;;;;16.58;8.93;;;9.00;99.90;;;;;;5013916;28;20042;-43
2022/06/15 01:55:28;;;;;;;22.23;9.10;;;9.10;99.90;;;;;;5013919;28;20100;-42
2022/06/15 01:57:58;;;;;;;14.93;8.50;;;9.10;99.90;;;;;;5013652;28;20037;-43
2022/06/15 02:00:25;;;;;;;15.98;8.52;;;9.00;99.90;;;;;;5013638;28;20049;-42
2022/06/15 02:03:12;;;;;;;15.05;9.73;;;9.00;99.90;;;;;;5013563;28;20038;-43
2022/06/15 02:05:58;;;;;;;15.20;9.10;;;9.00;99.90;;;;;;5013621;28;20311;-42
2022/06/15 02:08:56;;;;;;;13.40;8.77;;;9.00;99.90;;;;;;5013608;28;20116;-42
2022/06/15 02:11:37;;;;;;;16.50;9.27;;;9.00;99.90;;;;;;5013390;28;20076;-42
2022/06/15 02:14:18;;;;;;;17.50;9.20;;;8.90;99.90;;;;;;5013679;28;20120;-42
2022/06/15 02:16:52;;;;;;;13.18;8.73;;;8.90;99.90;;;;;;5013690;28;20039;-42
2022/06/15 02:19:24;;;;;;;16.33;9.43;;;8.90;99.90;;;;;;5013317;28;20058;-42
2022/06/15 02:21:53;;;;;;;15.55;9.20;;;8.90;99.90;;;;;;5013534;28;20446;-42
2022/06/15 02:24:21;;;;;;;18.15;10.15;;;8.90;99.90;;;;;;5013499;28;20049;-42
2022/06/15 02:26:49;;;;;;;17.55;9.43;;;9.30;99.90;;;;;;5011928;28;20042;-42
2022/06/15 02:29:24;;;;;;;21.40;10.18;;;9.70;99.90;;;;;;5013182;28;20509;-42
2022/06/15 02:31:55;;;;;;;23.60;9.88;;;8.80;99.90;;;;;;5013452;28;20046;-42
2022/06/15 02:34:21;;;;;;;19.85;9.00;;;8.70;99.90;;;;;;5013195;28;20587;-42
2022/06/15 02:36:46;;;;;;;19.75;8.75;;;8.50;99.90;;;;;;5013196;28;20129;-43
2022/06/15 02:39:12;;;;;;;15.63;8.90;;;8.90;99.90;;;;;;5013303;28;20041;-42
2022/06/15 02:41:38;;;;;;;13.75;8.55;;;8.90;99.90;;;;;;5013892;28;20077;-42
2022/06/15 02:44:05;;;;;;;12.63;7.43;;;8.40;99.90;;;;;;5017245;28;20038;-41
2022/06/15 02:46:37;;;;;;;12.75;7.28;;;8.60;99.90;;;;;;5016755;28;20489;-42
2022/06/15 02:49:03;;;;;;;14.60;8.13;;;8.30;99.90;;;;;;5017047;28;20452;-41
2022/06/15 02:51:41;;;;;;;15.85;7.43;;;8.00;99.90;;;;;;5017027;28;20073;-42
2022/06/15 02:54:29;;;;;;;11.38;6.93;;;8.20;99.90;;;;;;5016981;28;20116;-42
2022/06/15 02:56:55;;;;;;;11.27;5.38;;;8.20;99.90;;;;;;5017114;28;20040;-42
2022/06/15 02:59:21;;;;;;;8.43;5.45;;;8.10;99.90;;;;;;5016650;28;20042;-43
2022/06/15 03:01:47;;;;;;;16.40;6.30;;;9.10;99.90;;;;;;5015539;28;20489;-41
2022/06/15 03:04:12;;;;;;;12.02;6.45;;;8.00;99.90;;;;;;5016534;28;20390;-41
2022/06/15 03:06:38;;;;;;;13.27;6.75;;;8.00;99.90;;;;;;5016777;28;20034;-42
2022/06/15 03:09:04;;;;;;;19.02;9.55;;;7.70;99.90;;;;;;5016743;28;20038;-42
2022/06/15 03:11:30;;;;;;;20.00;9.32;;;8.00;99.90;;;;;;5016601;28;20045;-42
2022/06/15 03:13:55;;;;;;;22.42;10.38;;;8.10;99.90;;;;;;5016609;28;20131;-41
2022/06/15 03:16:21;;;;;;;19.42;10.35;;;8.20;99.90;;;;;;5015218;28;20389;-42
2022/06/15 03:18:47;;;;;;;16.60;9.05;;;8.20;99.90;;;;;;5016236;28;20049;-43
2022/06/15 03:21:13;;;;;;;15.68;9.45;;;9.00;99.90;;;;;;5016051;28;20053;-41
2022/06/15 03:23:39;;;;;;;17.85;10.52;;;9.30;99.90;;;;;;5016406;28;20045;-41
2022/06/15 03:26:06;;;;;;;19.33;11.05;;;8.50;99.90;;;;;;5016291;28;20056;-42
2022/06/15 03:28:34;;;;;;;16.70;9.60;;;8.50;99.90;;;;;;5016322;28;20137;-41
2022/06/15 03:31:00;;;;;;;23.42;10.85;;;8.50;99.90;;;;;;5016339;28;20401;-41
2022/06/15 03:33:25;;;;;;;17.25;10.18;;;8.60;99.90;;;;;;5016273;28;20034;-42
2022/06/15 03:35:51;;;;;;;21.08;10.82;;;9.60;99.90;;;;;;5016238;28;20045;-42
2022/06/15 03:38:17;;;;;;;19.30;10.38;;;8.60;99.90;;;;;;5016172;28;20444;-42
2022/06/15 03:40:46;;;;;;;20.73;10.65;;;8.70;99.90;;;;;;5016142;28;20049;-41
2022/06/15 03:43:12;;;;;;;21.27;10.35;;;8.80;99.90;;;;;;5015854;28;20048;-43
2022/06/15 03:45:38;;;;;;;23.15;9.57;;;8.70;99.90;;;;;;5015997;28;20390;-43
2022/06/15 03:48:04;;;;;;;21.70;10.93;;;8.70;99.90;;;;;;5015658;28;20117;-42
2022/06/15 03:50:32;;;;;;;18.27;10.45;;;8.80;99.90;;;;;;5015966;28;20113;-41
2022/06/15 03:52:59;;;;;;;17.50;10.55;;;9.40;99.90;;;;;;5015513;28;20124;-42
2022/06/15 03:55:25;;;;;;;17.98;10.07;;;8.80;99.90;;;;;;5015302;28;20034;-42
2022/06/15 03:57:51;;;;;;;23.00;11.63;;;8.90;99.90;;;;;;5015313;28;20481;-43
2022/06/15 04:00:20;;;;;;;23.08;9.55;;;8.90;99.90;;;;;;5015466;28;20045;-42
2022/06/15 04:02:46;;;;;;;22.67;9.95;;;9.00;99.90;;;;;;5015301;28;20042;-41
2022/06/15 04:05:18;;;;;;;14.80;10.00;;;8.80;99.90;;;;;;5015514;28;20485;-42
2022/06/15 04:10:28;;;;;;;13.73;8.48;;;9.20;99.90;;;;;;5015283;28;20062;-42
2022/06/15 04:12:54;;;;;;;14.35;8.95;;;9.20;99.90;;;;;;5015512;28;20046;-42
2022/06/15 04:15:20;;;;;;;11.18;6.65;;;9.70;99.90;;;;;;5015513;28;20049;-43
2022/06/15 04:17:45;;;;;;;10.23;6.25;;;9.80;99.90;;;;;;5015033;28;20105;-42
2022/06/15 04:20:32;;;;;;;8.30;5.05;;;9.80;99.90;;;;;;5015439;28;20096;-41
2022/06/15 04:22:59;;;;;;;9.45;5.97;;;10.80;99.90;;;;;;5015438;28;20401;-41
2022/06/15 04:25:25;;;;;;;11.98;6.00;;;10.40;99.90;;;;;;5014925;28;20478;-42
2022/06/15 04:27:51;;;;;;;11.15;7.40;;;11.10;99.90;;;;;;5015277;28;20048;-42
2022/06/15 04:30:16;;;;;;;10.10;6.72;;;11.30;99.90;;;;;;5014819;28;20046;-42
2022/06/15 04:32:42;;;;;;;9.45;7.20;;;11.50;99.90;;;;;;5014817;28;20054;-41
2022/06/15 04:35:08;;;;;;;13.15;7.60;;;11.70;99.90;;;;;;5014866;28;20124;-44
2022/06/15 04:37:34;;;;;;;10.18;7.25;;;11.60;99.90;;;;;;5014871;28;20084;-41
2022/06/15 04:40:00;;;;;;;9.82;6.90;;;11.40;99.90;;;;;;5015200;28;20046;-42
2022/06/15 04:42:25;;;;;;;10.55;6.75;;;11.40;99.90;;;;;;5014852;28;20044;-44
2022/06/15 04:44:51;;;;;;;12.68;7.38;;;11.30;99.90;;;;;;5015133;28;20504;-43
2022/06/15 04:47:17;;;;;;;8.15;5.68;;;11.90;99.90;;;;;;5013370;28;20433;-43
2022/06/15 04:49:43;;;;;;;12.50;6.95;;;11.60;99.90;;;;;;5014947;28;20116;-43
2022/06/15 04:52:08;;;;;;;9.95;6.38;;;11.50;99.90;;;;;;5014824;28;20458;-42
2022/06/15 04:54:34;;;;;;;11.63;6.78;;;11.40;99.90;;;;;;5015083;28;20393;-42
2022/06/15 04:56:59;;;;;;;13.07;7.32;;;11.80;99.90;;;;;;5014572;28;20034;-42
2022/06/15 04:59:25;;;;;;;8.88;6.43;;;11.80;99.90;;;;;;5014538;28;20042;-42
2022/06/15 05:01:51;;;;;;;10.55;6.60;;;12.00;99.90;;;;;;5014128;28;20077;-41
2022/06/15 05:04:18;;;;;;;10.00;6.60;;;12.10;99.90;;;;;;5014486;28;20038;-42
2022/06/15 05:06:43;;;;;;;9.95;6.38;;;12.20;99.90;;;;;;5014144;28;20061;-43
2022/06/15 05:09:11;;;;;;;11.07;5.97;;;12.30;99.90;;;;;;5014013;28;20046;-42
2022/06/15 05:11:37;;;;;;;10.43;6.10;;;12.90;99.90;;;;;;5014005;28;20042;-42
2022/06/15 05:14:03;;;;;;;8.32;6.53;;;12.60;99.90;;;;;;5014083;28;20504;-42
2022/06/15 05:16:29;;;;;;;10.98;6.20;;;12.80;99.90;;;;;;5014090;28;20065;-42
2022/06/15 05:18:56;;;;;;;11.18;6.65;;;13.00;99.90;;;;;;5013713;28;20571;-42
2022/06/15 05:21:21;;;;;;;12.27;6.20;;;13.30;99.90;;;;;;5029093;28;20053;-42
2022/06/15 05:23:47;;;;;;;11.68;5.43;;;13.60;99.90;;;;;;5013694;28;20038;-43
2022/06/15 05:26:13;;;;;;;9.50;5.70;;;13.90;99.90;;;;;;5013960;28;20045;-43
2022/06/15 05:28:41;;;;;;;14.05;5.47;;;14.10;99.90;;;;;;5013995;28;20393;-45
2022/06/15 05:31:20;;;;;;;14.60;5.35;;;14.20;99.90;;;;;;5013389;28;20489;-43
2022/06/15 05:33:46;;;;;;;9.32;5.05;;;14.40;99.90;;;;;;5013702;28;20041;-43
2022/06/15 05:36:15;;;;;;;13.85;5.30;;;14.50;99.90;;;;;;5013499;28;20069;-44
2022/06/15 05:38:40;;;;;;;14.50;4.97;;;14.70;99.90;;;;;;5013144;28;20053;-47
2022/06/15 05:41:07;;;;;;;13.60;6.63;;;14.80;99.90;;;;;;5013524;28;20237;-43
2022/06/15 05:43:35;;;;;;;8.07;5.00;;;15.10;99.90;;;;;;5013263;28;20038;-43
2022/06/15 05:46:15;;;;;;;8.93;4.85;;;15.30;99.90;;;;;;5013491;28;20049;-42
2022/06/15 05:48:40;;;;;;;10.60;5.30;;;15.50;99.90;;;;;;5013197;28;20034;-44
2022/06/15 05:51:06;;;;;;;6.50;4.88;;;15.80;99.90;;;;;;5013627;28;20077;-43
2022/06/15 05:53:32;;;;;;;8.23;4.07;;;16.10;99.90;;;;;;5013657;28;20117;-43
2022/06/15 05:55:57;;;;;;;12.25;4.43;;;16.20;99.90;;;;;;5013724;28;20112;-43
2022/06/15 05:58:23;;;;;;;8.38;4.80;;;16.80;99.90;;;;;;5013427;28;20042;-43
2022/06/15 06:00:49;;;;;;;8.95;3.47;;;17.20;99.90;;;;;;5013053;28;20091;-44
2022/06/15 06:03:16;;;;;;;6.05;3.03;;;17.20;99.90;;;;;;5013479;28;20034;-43
2022/06/15 06:05:42;;;;;;;5.47;3.20;;;17.50;99.90;;;;;;5013527;28;20109;-44
2022/06/15 06:08:08;;;;;;;4.43;2.60;;;17.60;99.90;;;;;;5013040;28;20118;-43
2022/06/15 06:10:33;;;;;;;9.57;3.33;;;18.10;99.90;;;;;;5013171;28;20470;-44
2022/06/15 06:12:59;;;;;;;7.13;2.85;;;19.00;99.90;;;;;;5013015;28;20386;-45
2022/06/15 06:15:26;;;;;;;6.93;3.15;;;19.80;99.90;;;;;;5013258;28;20061;-45
2022/06/15 06:17:51;;;;;;;8.82;2.15;;;20.30;97.80;;;;;;5017921;28;20472;-43
2022/06/15 06:20:17;;;;;;;8.85;2.88;;;20.80;95.00;;;;;;5019812;28;20120;-43
2022/06/15 06:22:43;;;;;;;6.63;2.38;;;21.00;93.30;;;;;;5018430;28;20033;-43
2022/06/15 06:25:10;;;;;;;7.55;2.67;;;22.30;90.30;;;;;;5019739;28;20125;-48
2022/06/15 06:27:35;;;;;;;5.68;2.55;;;23.00;85.40;;;;;;5019074;28;20453;-44
2022/06/15 06:30:02;;;;;;;7.07;2.30;;;23.00;85.20;;;;;;5019368;28;20076;-44
2022/06/15 06:32:28;;;;;;;7.63;1.88;;;22.70;85.20;;;;;;5019030;28;20121;-44
2022/06/15 06:34:55;;;;;;;5.43;2.13;;;24.00;82.80;;;;;;5018612;28;20154;-45
2022/06/15 06:37:21;;;;;;;4.50;1.88;;;26.10;76.90;;;;;;5018439;28;20080;-44
2022/06/15 06:39:55;;;;;;;5.70;2.58;;;27.50;70.90;;;;;;5018848;28;20041;-45
2022/06/15 06:42:21;;;;;;;4.35;1.80;;;28.50;65.10;;;;;;5019090;28;20160;-45
2022/06/15 06:44:46;;;;;;;4.10;1.70;;;29.50;64.50;;;;;;5018888;28;20487;-46
2022/06/15 06:47:12;;;;;;;5.10;1.15;;;30.60;63.10;;;;;;5018822;28;20041;-44
2022/06/15 06:49:38;;;;;;;5.10;1.20;;;29.60;62.30;;;;;;5018699;28;20042;-46
2022/06/15 06:52:04;;;;;;;4.25;1.10;;;30.70;60.40;;;;;;5018571;28;20083;-46
2022/06/15 06:54:31;;;;;;;5.22;1.23;;;31.50;58.30;;;;;;5018530;28;20038;-45
2022/06/15 06:56:58;;;;;;;3.90;1.00;;;32.10;56.40;;;;;;5018430;28;20046;-46
2022/06/15 06:59:23;;;;;;;3.63;1.02;;;32.70;54.90;;;;;;5018183;28;20042;-46
2022/06/15 07:01:49;;;;;;;4.88;1.08;;;33.50;54.10;;;;;;5017914;28;20092;-47
2022/06/15 07:04:16;;;;;;;3.17;1.45;;;34.00;52.50;;;;;;5018032;28;20081;-46
2022/06/15 07:06:43;;;;;;;6.07;1.13;;;34.30;51.00;;;;;;5018156;28;20138;-46
2022/06/15 07:09:09;;;;;;;5.80;1.77;;;34.30;49.70;;;;;;5016542;28;20508;-46
2022/06/15 07:11:35;;;;;;;3.67;0.80;;;34.40;48.80;;;;;;5016603;28;20044;-47
2022/06/15 07:14:01;;;;;;;3.63;1.40;;;34.80;49.00;;;;;;5016922;28;20512;-46
2022/06/15 07:16:28;;;;;;;4.38;1.15;;;35.20;48.50;;;;;;5016277;28;20523;-50
2022/06/15 07:18:54;;;;;;;6.55;1.23;;;35.60;47.50;;;;;;5016794;28;20057;-47
2022/06/15 07:21:23;;;;;;;3.35;1.15;;;36.30;47.50;;;;;;5016777;28;20536;-47
2022/06/15 07:23:50;;;;;;;3.78;1.38;;;36.80;45.80;;;;;;5015238;28;20042;-47
2022/06/15 07:26:21;;;;;;;4.05;1.55;;;37.10;45.90;;;;;;5015612;28;20580;-47
2022/06/15 07:28:47;;;;;;;4.20;0.97;;;36.90;45.10;;;;;;5011880;28;20089;-46
2022/06/15 07:31:27;;;;;;;5.10;1.15;;;37.00;45.10;;;;;;5012143;28;20524;-46
2022/06/15 07:33:54;;;;;;;5.03;1.23;;;37.50;45.60;;;;;;5011068;28;20042;-48
2022/06/15 07:36:23;;;;;;;4.53;1.33;;;37.90;44.00;;;;;;5012857;28;20030;-46
2022/06/15 07:38:49;;;;;;;4.68;1.33;;;38.20;44.00;;;;;;5011744;28;20547;-53
2022/06/15 07:41:15;;;;;;;4.57;1.08;;;38.50;42.80;;;;;;5010542;28;20476;-55
2022/06/15 07:43:41;;;;;;;5.07;1.00;;;39.00;42.90;;;;;;5009608;28;20077;-56
2022/06/15 07:46:07;;;;;;;3.28;0.80;;;39.50;41.80;;;;;;5009926;28;20456;-55
2022/06/15 07:51:28;;;;;;;5.25;1.20;;;39.60;40.00;;;;;;5010124;28;20334;-55
2022/06/15 07:53:55;;;;;;;2.38;0.63;;;38.90;39.30;;;;;;5009740;28;20065;-55
2022/06/15 07:56:21;;;;;;;3.05;0.57;;;38.30;40.30;;;;;;5009922;28;20397;-56
2022/06/15 07:58:47;;;;;;;3.55;0.77;;;38.20;40.20;;;;;;5009223;28;20045;-55
2022/06/15 08:01:13;;;;;;;4.10;1.10;;;38.20;40.20;;;;;;5009994;28;20042;-55
2022/06/15 08:03:38;;;;;;;5.25;0.65;;;38.20;39.80;;;;;;5009704;28;20052;-55
2022/06/15 08:06:04;;;;;;;3.30;0.70;;;37.60;39.40;;;;;;5009775;28;20053;-55
2022/06/15 08:08:31;;;;;;;3.70;1.02;;;37.80;39.80;;;;;;4992219;28;20056;-56
2022/06/15 08:10:58;;;;;;;4.13;0.90;;;37.70;39.70;;;;;;5009532;28;20037;-55
2022/06/15 08:13:24;;;;;;;4.03;0.55;;;37.30;38.90;;;;;;5009319;28;20081;-55
2022/06/15 08:15:51;;;;;;;4.68;1.02;;;37.40;40.30;;;;;;5009082;28;20041;-56
2022/06/15 08:18:24;;;;;;;3.88;0.88;;;38.00;39.70;;;;;;5009098;28;20057;-55
2022/06/15 08:21:13;;;;;;;4.75;1.15;;;37.70;39.20;;;;;;5009071;28;20045;-55
2022/06/15 08:23:43;;;;;;;3.47;0.90;;;38.20;40.50;;;;;;5008850;28;20587;-55
2022/06/15 08:26:14;;;;;;;3.63;0.60;;;38.70;39.60;;;;;;5009209;28;20654;-55
2022/06/15 08:28:41;;;;;;;;;;;39.00;39.90;;;;;;5009113;28;20050;-55
2022/06/15 08:31:08;;;;;;;3.10;0.57;;;39.30;41.10;;;;;;5007871;28;20281;-55
2022/06/15 08:33:34;;;;;;;3.00;0.60;;;39.10;37.90;;;;;;5009337;28;20069;-55
2022/06/15 08:35:59;;;;;;;3.42;0.70;;;39.20;37.80;;;;;;5009332;28;20065;-55
2022/06/15 08:38:27;;;;;;;3.83;0.65;;;39.20;37.30;;;;;;5009221;28;20390;-56
2022/06/15 08:40:55;;;;;;;4.68;0.73;;;39.40;37.30;;;;;;5008703;28;20072;-56
2022/06/15 08:43:35;;;;;;;3.78;0.80;;;39.50;36.80;;;;;;5008795;28;20061;-56
2022/06/15 08:46:12;;;;;;;4.45;0.90;;;39.40;36.80;;;;;;5009078;28;20113;-57
2022/06/15 08:49:19;;;;;;;3.50;0.77;;;39.10;37.80;;;;;;5008070;28;20493;-55
2022/06/15 08:51:49;;;;;;;3.92;0.60;;;38.80;35.80;;;;;;5008257;28;20119;-55
2022/06/15 08:54:26;;;;;;;4.25;0.82;;;38.40;36.50;;;;;;5008613;28;20048;-55
2022/06/15 08:57:05;;;;;;;2.80;0.60;;;38.40;37.50;;;;;;5008773;28;20132;-55
2022/06/15 08:59:42;;;;;;;4.53;0.80;;;37.90;37.70;;;;;;5008108;28;20042;-55
2022/06/15 09:02:40;;;;;;;4.30;0.80;;;37.70;37.60;;;;;;5008758;28;20045;-54
2022/06/15 09:05:44;;;;;;;5.68;1.40;;;35.80;37.70;;;;;;5008262;28;20558;-54
2022/06/15 09:08:52;;;;;;;2.90;0.80;;;35.10;40.90;;;;;;5008037;28;20195;-55
2022/06/15 09:11:25;;;;;;;5.63;0.90;;;35.90;41.20;;;;;;5007837;28;20053;-55
2022/06/15 09:14:17;;;;;;;4.25;0.70;;;35.40;40.30;;;;;;5007929;28;20054;-55
2022/06/15 09:17:10;;;;;;;2.60;0.60;;;36.40;41.70;;;;;;5008035;28;20508;-55
2022/06/15 09:19:42;;;;;;;3.08;0.60;;;37.90;38.90;;;;;;5007850;28;20065;-56
2022/06/15 09:22:12;;;;;;;2.30;0.55;;;38.70;38.90;;;;;;5008029;28;20510;-55
2022/06/15 09:24:55;;;;;;;3.92;0.80;;;39.50;38.10;;;;;;5008270;28;20037;-56
2022/06/15 09:27:29;;;;;;;3.90;0.70;;;38.50;36.20;;;;;;5008560;28;20085;-55
2022/06/15 09:30:07;;;;;;;3.13;0.60;;;36.80;37.00;;;;;;5006484;28;20103;-57
2022/06/15 09:32:41;;;;;;;3.00;0.55;;;35.00;39.30;;;;;;4991012;28;20050;-57
2022/06/15 09:35:11;;;;;;;2.88;0.50;;;33.90;40.50;;;;;;5008899;28;20073;-57
2022/06/15 09:37:40;;;;;;;2.33;0.43;;;33.40;40.00;;;;;;5009022;28;20603;-57
2022/06/15 09:40:08;;;;;;;2.15;0.40;;;32.80;39.40;;;;;;5008407;28;20121;-56
2022/06/15 09:43:01;;;;;;;2.38;0.40;;;31.80;39.40;;;;;;5008925;28;20406;-57
2022/06/15 09:45:47;;;;;;;1.95;0.20;;;32.10;42.30;;;;;;5008698;28;20050;-57
2022/06/15 09:48:34;;;;;;;3.60;0.50;;;34.00;41.70;;;;;;5009026;28;20049;-56
2022/06/15 09:51:27;;;;;;;4.97;0.40;;;34.60;38.80;;;;;;5008349;28;20080;-55
2022/06/15 09:53:59;;;;;;;2.83;0.50;;;34.30;39.20;;;;;;5003825;28;20120;-57
2022/06/15 09:56:25;;;;;;;2.55;0.30;;;34.60;38.50;;;;;;5005003;28;20382;-41
2022/06/15 09:58:58;;;;;;;2.97;0.45;;;35.40;38.00;;;;;;5005183;28;20121;-47
2022/06/15 10:01:32;;;;;;;2.70;0.30;;;36.10;37.80;;;;;;5005888;28;20137;-47
2022/06/15 10:04:00;;;;;;;1.63;0.40;;;36.20;38.60;;;;;;5006618;28;20539;-48
2022/06/15 10:06:42;;;;;;;5.25;0.43;;;35.80;39.00;;;;;;5006561;28;20495;-47
2022/06/15 10:09:10;;;;;;;3.08;0.50;;;35.70;39.00;;;;;;5006584;28;20289;-45
2022/06/15 10:11:42;;;;;;;2.15;0.55;;;35.60;39.40;;;;;;5006798;28;20668;-44
2022/06/15 10:14:23;;;;;;;3.67;0.40;;;35.80;38.60;;;;;;5008172;28;20053;-43
2022/06/15 10:16:52;;;;;;;;;;;35.50;38.50;;;;;;5008924;28;20058;-47
2022/06/15 10:19:19;;;;;;;2.72;0.52;;;35.40;39.40;;;;;;5007924;28;19925;-51
2022/06/15 10:21:53;;;;;;;2.28;0.50;;;35.40;38.60;;;;;;5007220;28;20100;-50
2022/06/15 10:24:27;;;;;;;2.30;0.30;;;35.40;38.80;;;;;;5007254;28;20045;-55
2022/06/15 10:27:15;;;;;;;2.90;0.55;;;35.00;39.10;;;;;;5010338;28;20353;-54
2022/06/15 10:29:43;;;;;;;2.08;0.47;;;35.20;38.10;;;;;;5007513;28;20117;-45
2022/06/15 10:32:09;;;;;;;2.47;0.55;;;35.10;38.70;;;;;;5006544;28;20545;-44
2022/06/15 10:34:50;;;;;;;2.63;0.40;;;34.10;39.10;;;;;;5007471;28;20141;-43
2022/06/15 10:37:32;;;;;;;3.38;0.43;;;32.90;39.70;;;;;;5005875;28;20085;-45
2022/06/15 10:40:05;;;;;;;3.45;0.80;;;33.00;42.40;;;;;;5006625;28;20049;-42
2022/06/15 10:42:33;;;;;;;3.03;0.47;;;33.80;41.10;;;;;;5006485;28;20056;-43
2022/06/15 10:45:07;;;;;;;6.40;0.60;;;34.00;40.80;;;;;;5005737;28;20784;-46
2022/06/15 10:47:51;;;;;;;2.35;0.70;;;33.30;39.90;;;;;;5005603;28;20049;-41
2022/06/15 10:50:33;;;;;;;5.28;1.05;;;32.30;40.90;;;;;;5005749;28;20046;-42
2022/06/15 10:53:05;;;;;;;3.40;0.40;;;32.10;41.90;;;;;;5006137;28;20106;-40
2022/06/15 11:04:11;;;;;;;2.40;0.50;;;28.60;44.00;;;;;;5008529;28;20042;-42
2022/06/15 11:06:45;;;;;;;2.95;0.50;;;27.70;45.20;;;;;;5010345;28;20038;-43
2022/06/15 11:09:46;;;;;;;4.03;0.50;;;26.90;46.10;;;;;;5010139;28;20080;-44
2022/06/15 11:12:39;;;;;;;3.25;0.65;;;26.30;48.50;;;;;;5008177;28;20054;-43
2022/06/15 11:15:14;;;;;;;3.17;0.63;;;25.80;49.00;;;;;;5008829;28;20810;-41
2022/06/15 11:18:01;;;;;;;5.43;0.77;;;25.30;49.50;;;;;;5008888;28;20080;-41
2022/06/15 11:20:44;;;;;;;2.05;0.60;;;25.10;49.20;;;;;;5009661;28;20050;-43
2022/06/15 11:23:39;;;;;;;3.33;0.40;;;24.90;51.30;;;;;;5008635;28;20088;-42
2022/06/15 11:26:53;;;;;;;4.13;0.50;;;24.90;52.20;;;;;;5007841;28;20437;-43
2022/06/15 11:29:33;;;;;;;3.88;0.55;;;24.90;51.90;;;;;;5009195;28;20148;-41
2022/06/15 11:32:20;;;;;;;3.70;0.73;;;24.70;50.70;;;;;;5008322;28;20050;-46
2022/06/15 11:35:14;;;;;;;3.28;1.00;;;24.60;50.10;;;;;;5010609;28;20587;-47
2022/06/15 11:37:51;;;;;;;1.90;0.60;;;24.50;52.90;;;;;;5011274;28;20057;-45
2022/06/15 11:40:42;;;;;;;2.60;0.80;;;24.40;53.70;;;;;;5010311;28;20045;-46
2022/06/15 11:43:17;;;;;;;2.97;0.75;;;24.40;55.30;;;;;;5010921;28;20081;-49
2022/06/15 11:46:03;;;;;;;2.78;0.60;;;24.30;52.40;;;;;;5011030;28;20121;-47
2022/06/15 11:48:39;;;;;;;3.92;0.68;;;24.10;53.50;;;;;;5011348;28;20045;-46
2022/06/15 11:51:11;;;;;;;8.52;0.80;;;23.70;53.30;;;;;;5011467;28;20452;-52
2022/06/15 11:54:09;;;;;;;4.68;0.98;;;23.70;54.00;;;;;;5012168;28;20042;-49
2022/06/15 11:57:16;;;;;;;4.18;0.60;;;23.50;53.80;;;;;;5012083;28;20153;-47
2022/06/15 11:59:51;;;;;;;4.63;0.80;;;23.50;53.70;;;;;;5011346;28;20520;-49
2022/06/15 12:03:07;;;;;;;3.80;0.68;;;23.30;53.90;;;;;;5011295;28;20092;-47
2022/06/15 12:06:09;;;;;;;4.63;0.70;;;23.10;53.70;;;;;;5010042;28;20489;-48
2022/06/15 12:09:02;;;;;;;2.17;0.50;;;23.10;55.70;;;;;;5011843;28;20424;-47
2022/06/15 12:14:46;;;;;;;3.33;0.70;;;23.40;58.70;;;;;;5010805;28;20157;-48
2022/06/15 12:17:57;;;;;;;3.03;0.68;;;23.40;55.90;;;;;;5010878;28;20041;-47
2022/06/15 12:20:32;;;;;;;6.32;0.57;;;23.40;55.30;;;;;;5010502;28;20046;-47
2022/06/15 12:23:24;;;;;;;1.92;0.50;;;23.50;55.00;;;;;;5011187;28;20046;-49
2022/06/15 12:26:10;;;;;;;3.40;0.77;;;23.90;55.80;;;;;;5011597;28;20046;-48
2022/06/15 12:28:57;;;;;;;4.18;0.70;;;24.00;55.60;;;;;;5010617;28;20120;-51
2022/06/15 12:31:47;;;;;;;2.20;0.65;;;24.00;54.10;;;;;;5009564;28;20049;-50
2022/06/15 12:34:31;;;;;;;2.75;0.40;;;24.20;53.60;;;;;;5010538;28;20509;-47
2022/06/15 12:37:10;;;;;;;3.90;1.00;;;24.10;55.70;;;;;;5010146;28;20046;-47
2022/06/15 12:40:08;;;;;;;5.22;0.85;;;23.60;56.90;;;;;;5010787;28;20382;-47
2022/06/15 12:42:34;;;;;;;3.92;0.80;;;23.10;58.80;;;;;;4995629;28;20418;-47
2022/06/15 12:45:32;;;;;;;1.90;0.52;;;22.70;56.20;;;;;;5010533;28;20401;-47
2022/06/15 12:48:10;;;;;;;2.35;0.50;;;22.40;56.30;;;;;;5010533;28;20050;-46
2022/06/15 12:50:57;;;;;;;3.30;1.00;;;22.20;56.00;;;;;;5010826;28;20140;-49
2022/06/15 12:53:34;;;;;;;5.05;0.90;;;22.20;56.50;;;;;;5009650;28;20509;-46
2022/06/15 12:56:21;;;;;;;5.32;0.85;;;22.30;58.10;;;;;;5009945;28;20041;-47
2022/06/15 12:59:08;;;;;;;4.03;1.10;;;22.40;57.70;;;;;;5011010;28;20335;-49
2022/06/15 13:01:46;;;;;;;4.30;0.60;;;22.50;57.80;;;;;;5010069;28;20045;-46
2022/06/15 13:04:37;;;;;;;3.17;0.85;;;22.20;57.40;;;;;;5010302;28;20052;-48
2022/06/15 13:07:20;;;;;;;2.80;0.68;;;22.00;58.80;;;;;;5009698;28;20050;-47
2022/06/15 13:10:08;;;;;;;3.40;0.80;;;21.70;57.90;;;;;;5010150;28;20478;-47
2022/06/15 13:12:58;;;;;;;3.47;0.90;;;21.70;57.70;;;;;;5009855;28;20049;-45
2022/06/15 13:15:32;;;;;;;3.00;0.98;;;21.80;58.70;;;;;;5008947;28;20042;-49
2022/06/15 13:18:09;;;;;;;4.63;1.10;;;21.90;58.50;;;;;;5008846;28;20512;-47
2022/06/15 13:20:47;;;;;;;4.07;0.60;;;22.10;57.90;;;;;;5008670;28;20100;-48
2022/06/15 13:23:30;;;;;;;5.22;0.73;;;22.40;59.40;;;;;;5008852;28;20096;-47
2022/06/15 13:26:17;;;;;;;7.60;1.73;;;22.50;58.90;;;;;;5009260;28;20176;-48
2022/06/15 13:29:05;;;;;;;2.20;0.90;;;22.50;58.40;;;;;;5009875;28;20393;-49
2022/06/15 13:31:49;;;;;;;3.22;0.95;;;22.50;57.50;;;;;;5008713;28;20667;-46
2022/06/15 13:34:16;;;;;;;7.28;0.82;;;22.40;58.10;;;;;;5009573;28;20080;-48
2022/06/15 13:37:02;;;;;;;2.50;1.17;;;22.20;60.10;;;;;;5008741;28;20045;-46